createdAt,value
2018-12-11T06:12:50.952Z,7.29
2018-12-11T06:13:50.881Z,8.51
2018-12-11T06:14:50.803Z,9.44
2018-12-11T06:15:50.815Z,10.64
2018-12-11T06:16:49.754Z,11.60
2018-12-11T06:17:50.849Z,12.32
2018-12-11T06:18:50.772Z,13.05
2018-12-11T06:19:50.769Z,13.63
2018-12-11T06:20:50.751Z,14.22
2018-12-11T06:21:51.011Z,14.65
2018-12-11T06:22:51.118Z,15.07
2018-12-11T06:23:50.978Z,15.42
2018-12-11T06:24:50.708Z,15.65
2018-12-11T06:25:50.709Z,15.97
2018-12-11T06:26:49.682Z,16.23
2018-12-11T06:27:50.743Z,16.42
2018-12-11T06:28:50.630Z,16.57
2018-12-11T06:29:50.908Z,16.79
2018-12-11T06:30:50.622Z,16.93
2018-12-11T06:31:50.603Z,17.06
2018-12-11T06:32:50.612Z,17.14
2018-12-11T06:33:50.574Z,17.24
2018-12-11T06:34:50.572Z,17.41
2018-12-11T06:35:50.550Z,17.45
2018-12-11T06:36:50.533Z,17.59
2018-12-11T06:37:50.548Z,17.60
2018-12-11T06:38:50.517Z,17.63
2018-12-11T06:39:50.633Z,17.82
2018-12-11T06:40:50.495Z,17.78
2018-12-11T06:41:50.523Z,17.89
2018-12-11T06:42:50.557Z,17.90
2018-12-11T06:43:49.530Z,17.97
2018-12-11T06:44:51.043Z,17.90
2018-12-11T06:45:50.558Z,17.95
2018-12-11T06:46:52.015Z,18.00
2018-12-11T06:47:50.471Z,18.03
2018-12-11T06:48:51.299Z,18.05
2018-12-11T06:49:50.394Z,18.05
2018-12-11T06:50:50.452Z,18.08
2018-12-11T06:51:50.419Z,18.13
2018-12-11T06:52:50.441Z,18.20
2018-12-11T06:53:51.218Z,18.18
2018-12-11T06:54:50.610Z,18.16
2018-12-11T06:55:50.341Z,18.18
2018-12-11T06:56:50.375Z,18.20
2018-12-11T06:57:50.338Z,18.13
2018-12-11T06:58:50.309Z,18.25
2018-12-11T06:59:50.554Z,18.20
2018-12-11T07:00:50.281Z,18.20
2018-12-11T07:01:50.344Z,18.25
2018-12-11T07:02:50.288Z,18.29
2018-12-11T07:03:50.250Z,18.20
2018-12-11T07:04:50.318Z,18.28
2018-12-11T07:05:50.278Z,18.31
2018-12-11T07:06:50.255Z,18.34
2018-12-11T07:07:50.509Z,18.31
2018-12-11T07:08:50.198Z,18.31
2018-12-11T07:09:50.458Z,18.37
2018-12-11T07:10:50.177Z,18.31
2018-12-11T07:11:52.062Z,18.34
2018-12-11T07:12:50.240Z,18.35
2018-12-11T07:13:50.185Z,18.33
2018-12-11T07:14:50.147Z,18.31
2018-12-11T07:15:50.114Z,18.34
2018-12-11T07:16:50.191Z,18.34
2018-12-11T07:17:56.960Z,18.26
2018-12-11T07:18:50.788Z,18.29
2018-12-11T07:19:50.128Z,18.33
2018-12-11T07:20:50.094Z,18.23
2018-12-11T07:21:50.363Z,18.35
2018-12-11T07:22:50.070Z,18.31
2018-12-11T07:23:50.157Z,18.35
2018-12-11T07:24:50.050Z,18.29
2018-12-11T07:25:50.305Z,18.31
2018-12-11T07:26:50.027Z,18.34
2018-12-11T07:27:50.011Z,18.34
2018-12-11T07:28:50.065Z,18.33
2018-12-11T07:29:53.192Z,18.34
2018-12-11T07:30:51.334Z,18.34
2018-12-11T07:31:50.196Z,18.31
2018-12-11T07:32:49.941Z,18.34
2018-12-11T07:33:50.962Z,18.38
2018-12-11T07:34:49.909Z,18.37
2018-12-11T07:35:49.921Z,18.23
2018-12-11T07:36:49.903Z,18.43
2018-12-11T07:37:49.903Z,18.29
2018-12-11T07:38:49.924Z,18.23
2018-12-11T07:39:50.666Z,18.31
2018-12-11T07:40:50.097Z,18.38
2018-12-11T07:41:49.827Z,18.25
2018-12-11T07:42:48.824Z,18.40
2018-12-11T07:43:49.805Z,18.40
2018-12-11T07:44:50.666Z,18.35
2018-12-11T07:45:49.792Z,18.40
2018-12-11T07:46:49.814Z,18.38
2018-12-11T07:47:50.972Z,18.29
2018-12-11T07:48:49.759Z,18.31
2018-12-11T07:49:49.744Z,18.29
2018-12-11T07:50:49.738Z,18.38
2018-12-11T07:51:49.731Z,18.38
2018-12-11T07:52:51.135Z,18.40
2018-12-11T07:53:49.957Z,18.35
2018-12-11T07:54:49.698Z,18.37
2018-12-11T07:55:49.712Z,18.38
2018-12-11T07:56:49.810Z,18.34
2018-12-11T07:57:49.656Z,18.33
2018-12-11T07:58:49.647Z,18.31
2018-12-11T07:59:49.891Z,18.41
2018-12-11T08:00:50.645Z,18.41
2018-12-11T08:01:49.622Z,18.25
2018-12-11T08:02:49.601Z,18.25
2018-12-11T08:03:49.594Z,18.31
2018-12-11T08:04:49.881Z,18.35
2018-12-11T08:05:49.561Z,18.38
2018-12-11T08:06:50.080Z,18.37
2018-12-11T08:07:49.820Z,18.40
2018-12-11T08:08:49.532Z,18.47
2018-12-11T08:09:50.215Z,18.47
2018-12-11T08:10:49.601Z,18.50
2018-12-11T08:11:50.494Z,18.49
2018-12-11T08:12:49.989Z,18.49
2018-12-11T08:13:49.599Z,18.55
2018-12-11T08:14:49.538Z,18.59
2018-12-11T08:15:49.556Z,18.62
2018-12-11T08:16:49.711Z,18.70
2018-12-11T08:17:49.497Z,18.62
2018-12-11T08:18:49.489Z,18.66
2018-12-11T08:19:49.472Z,18.66
2018-12-11T08:20:49.763Z,18.73
2018-12-11T08:21:50.270Z,18.70
2018-12-11T08:22:49.422Z,18.73
2018-12-11T08:23:49.430Z,18.78
2018-12-11T08:24:49.673Z,18.81
2018-12-11T08:25:49.621Z,18.75
2018-12-11T08:26:49.898Z,18.83
2018-12-11T08:27:49.631Z,18.81
2018-12-11T08:28:49.409Z,18.80
2018-12-11T08:29:49.455Z,18.81
2018-12-11T08:30:49.421Z,18.75
2018-12-11T08:31:49.328Z,18.78
2018-12-11T08:32:49.346Z,18.80
2018-12-11T08:33:49.539Z,18.81
2018-12-11T08:34:49.394Z,18.78
2018-12-11T08:35:49.464Z,18.78
2018-12-11T08:36:49.321Z,18.88
2018-12-11T08:37:49.277Z,18.89
2018-12-11T08:38:49.665Z,18.88
2018-12-11T08:39:49.318Z,18.84
2018-12-11T08:40:49.218Z,18.92
2018-12-11T08:41:50.165Z,18.83
2018-12-11T08:42:49.196Z,18.89
2018-12-11T08:43:49.173Z,18.84
2018-12-11T08:44:51.398Z,18.88
2018-12-11T08:45:50.342Z,18.89
2018-12-11T08:46:49.121Z,18.93
2018-12-11T08:47:49.115Z,18.98
2018-12-11T08:48:49.265Z,18.93
2018-12-11T08:49:49.376Z,18.93
2018-12-11T08:50:49.120Z,18.90
2018-12-11T08:51:49.668Z,18.95
2018-12-11T08:52:49.078Z,18.96
2018-12-11T08:53:49.051Z,18.99
2018-12-11T08:54:49.086Z,19.04
2018-12-11T08:55:49.318Z,19.02
2018-12-11T08:56:49.663Z,19.09
2018-12-11T08:57:48.997Z,19.08
2018-12-11T08:58:49.239Z,19.09
2018-12-11T08:59:48.986Z,19.14
2018-12-11T09:00:48.979Z,19.04
2018-12-11T09:01:49.471Z,19.11
2018-12-11T09:02:49.074Z,19.18
2018-12-11T09:03:49.225Z,19.09
2018-12-11T09:04:48.979Z,19.16
2018-12-11T09:05:48.971Z,19.19
2018-12-11T09:06:49.662Z,19.16
2018-12-11T09:07:48.944Z,19.21
2018-12-11T09:08:49.870Z,19.24
2018-12-11T09:09:48.871Z,19.15
2018-12-11T09:10:48.879Z,19.19
2018-12-11T09:11:49.162Z,19.26
2018-12-11T09:12:48.831Z,19.24
2018-12-11T09:13:48.830Z,19.30
2018-12-11T09:14:48.856Z,19.24
2018-12-11T09:15:48.807Z,19.30
2018-12-11T09:16:48.905Z,19.27
2018-12-11T09:17:49.072Z,19.19
2018-12-11T09:18:49.061Z,19.29
2018-12-11T09:19:48.816Z,19.18
2018-12-11T09:20:49.061Z,19.19
2018-12-11T09:21:48.842Z,19.19
2018-12-11T09:22:47.759Z,19.33
2018-12-11T09:23:48.754Z,19.22
2018-12-11T09:24:48.767Z,19.19
2018-12-11T09:25:48.728Z,19.29
2018-12-11T09:26:48.802Z,19.30
2018-12-11T09:27:48.791Z,19.29
2018-12-11T09:28:47.679Z,19.24
2018-12-11T09:29:48.897Z,19.26
2018-12-11T09:30:48.657Z,19.27
2018-12-11T09:31:48.671Z,19.31
2018-12-11T09:32:48.663Z,19.36
2018-12-11T09:33:48.949Z,19.36
2018-12-11T09:34:48.661Z,19.34
2018-12-11T09:35:48.646Z,19.40
2018-12-11T09:36:48.679Z,19.36
2018-12-11T09:37:48.731Z,19.48
2018-12-11T09:38:48.602Z,19.51
2018-12-11T09:39:48.560Z,19.49
2018-12-11T09:40:48.822Z,19.52
2018-12-11T09:41:48.861Z,19.58
2018-12-11T09:42:48.541Z,19.64
2018-12-11T09:43:50.322Z,19.62
2018-12-11T09:44:48.496Z,19.59
2018-12-11T09:45:48.498Z,19.62
2018-12-11T09:46:48.513Z,19.62
2018-12-11T09:47:49.155Z,19.62
2018-12-11T09:48:48.451Z,19.67
2018-12-11T09:49:48.489Z,19.55
2018-12-11T09:50:48.629Z,19.63
2018-12-11T09:51:48.553Z,19.66
2018-12-11T09:52:48.444Z,19.73
2018-12-11T09:53:48.392Z,19.70
2018-12-11T09:54:48.401Z,19.77
2018-12-11T09:55:48.378Z,19.71
2018-12-11T09:56:48.708Z,19.82
2018-12-11T09:57:48.421Z,19.79
2018-12-11T09:58:48.366Z,19.76
2018-12-11T09:59:48.381Z,19.88
2018-12-11T10:00:49.369Z,19.88
2018-12-11T10:01:48.421Z,19.88
2018-12-11T10:02:48.547Z,19.95
2018-12-11T10:03:48.583Z,20.03
2018-12-11T10:04:48.321Z,19.96
2018-12-11T10:05:48.281Z,20.02
2018-12-11T10:06:48.818Z,20.07
2018-12-11T10:07:48.336Z,20.10
2018-12-11T10:08:48.568Z,20.07
2018-12-11T10:09:48.230Z,20.02
2018-12-11T10:10:48.243Z,20.10
2018-12-11T10:11:48.405Z,20.13
2018-12-11T10:12:48.216Z,20.22
2018-12-11T10:13:48.219Z,20.24
2018-12-11T10:14:48.167Z,20.39
2018-12-11T10:15:48.201Z,20.40
2018-12-11T10:16:49.251Z,20.37
2018-12-11T10:17:48.209Z,20.43
2018-12-11T10:18:48.200Z,20.52
2018-12-11T10:19:48.119Z,20.50
2018-12-11T10:20:48.494Z,20.56
2018-12-11T10:21:51.960Z,20.65
2018-12-11T10:22:48.361Z,20.66
2018-12-11T10:23:48.165Z,20.74
2018-12-11T10:24:48.121Z,20.74
2018-12-11T10:25:48.605Z,20.75
2018-12-11T10:26:48.411Z,20.80
2018-12-11T10:27:48.649Z,20.78
2018-12-11T10:28:48.294Z,20.78
2018-12-11T10:29:48.069Z,20.80
2018-12-11T10:30:48.139Z,20.85
2018-12-11T10:31:58.333Z,20.87
2018-12-11T10:32:47.961Z,20.90
2018-12-11T10:33:47.992Z,20.87
2018-12-11T10:34:48.212Z,20.92
2018-12-11T10:35:47.937Z,20.99
2018-12-11T10:36:49.421Z,20.96
2018-12-11T10:37:48.225Z,20.93
2018-12-11T10:38:48.166Z,20.96
2018-12-11T10:39:47.890Z,20.97
2018-12-11T10:40:47.889Z,20.99
2018-12-11T10:41:47.923Z,21.00
2018-12-11T10:42:47.912Z,21.03
2018-12-11T10:43:47.869Z,21.05
2018-12-11T10:44:47.878Z,21.05
2018-12-11T10:45:47.835Z,21.07
2018-12-11T10:46:48.795Z,21.03
2018-12-11T10:47:47.901Z,21.05
2018-12-11T10:48:47.857Z,21.02
2018-12-11T10:49:48.061Z,21.03
2018-12-11T10:50:47.843Z,21.05
2018-12-11T10:51:47.880Z,20.92
2018-12-11T10:52:47.777Z,20.93
2018-12-11T10:53:47.744Z,20.93
2018-12-11T10:54:47.745Z,20.82
2018-12-11T10:55:47.855Z,20.90
2018-12-11T10:56:47.714Z,20.88
2018-12-11T10:57:47.693Z,20.81
2018-12-11T10:58:47.975Z,20.81
2018-12-11T10:59:47.672Z,20.92
2018-12-11T11:00:48.030Z,20.82
2018-12-11T11:01:47.717Z,20.82
2018-12-11T11:02:47.635Z,20.82
2018-12-11T11:03:47.654Z,20.81
2018-12-11T11:04:47.888Z,20.81
2018-12-11T11:05:47.621Z,20.77
2018-12-11T11:06:47.601Z,20.78
2018-12-11T11:07:47.583Z,20.75
2018-12-11T11:08:48.591Z,20.63
2018-12-11T11:09:47.579Z,20.62
2018-12-11T11:10:47.569Z,20.70
2018-12-11T11:11:47.576Z,20.63
2018-12-11T11:12:47.796Z,20.58
2018-12-11T11:13:47.554Z,20.65
2018-12-11T11:14:47.772Z,20.59
2018-12-11T11:15:46.508Z,20.60
2018-12-11T11:16:47.541Z,20.52
2018-12-11T11:17:47.823Z,20.52
2018-12-11T11:18:47.663Z,20.55
2018-12-11T11:19:47.482Z,20.51
2018-12-11T11:20:47.498Z,20.58
2018-12-11T11:21:47.491Z,20.47
2018-12-11T11:22:47.465Z,20.47
2018-12-11T11:23:47.562Z,20.47
2018-12-11T11:24:47.443Z,20.40
2018-12-11T11:25:47.408Z,20.40
2018-12-11T11:26:47.439Z,20.40
2018-12-11T11:27:47.447Z,20.34
2018-12-11T11:28:47.448Z,20.32
2018-12-11T11:29:47.646Z,20.36
2018-12-11T11:30:47.789Z,20.34
2018-12-11T11:31:48.626Z,20.34
2018-12-11T11:32:47.372Z,20.32
2018-12-11T11:33:47.346Z,20.34
2018-12-11T11:34:47.295Z,20.34
2018-12-11T11:35:47.290Z,20.43
2018-12-11T11:36:47.284Z,20.31
2018-12-11T11:37:47.528Z,20.37
2018-12-11T11:38:48.406Z,20.31
2018-12-11T11:39:46.243Z,20.36
2018-12-11T11:40:47.263Z,20.39
2018-12-11T11:41:47.228Z,20.34
2018-12-11T11:42:47.291Z,20.34
2018-12-11T11:43:47.540Z,20.31
2018-12-11T11:44:47.733Z,20.31
2018-12-11T11:45:47.224Z,20.31
2018-12-11T11:46:47.294Z,20.29
2018-12-11T11:47:47.177Z,20.31
2018-12-11T11:48:47.218Z,20.34
2018-12-11T11:49:47.207Z,20.43
2018-12-11T11:50:47.348Z,20.34
2018-12-11T11:51:48.447Z,20.39
2018-12-11T11:52:47.123Z,20.31
2018-12-11T11:53:47.115Z,20.39
2018-12-11T11:54:47.076Z,20.34
2018-12-11T11:55:47.062Z,20.36
2018-12-11T11:56:47.068Z,20.37
2018-12-11T11:57:47.076Z,20.32
2018-12-11T11:58:47.343Z,20.40
2018-12-11T11:59:47.025Z,20.36
2018-12-11T12:00:47.014Z,20.31
2018-12-11T12:01:47.007Z,20.29
2018-12-11T12:02:47.000Z,20.32
2018-12-11T12:03:47.003Z,20.34
2018-12-11T12:04:47.220Z,20.39
2018-12-11T12:05:47.249Z,20.18
2018-12-11T12:06:46.988Z,20.25
2018-12-11T12:07:46.938Z,20.26
2018-12-11T12:08:46.957Z,20.21
2018-12-11T12:09:46.960Z,20.25
2018-12-11T12:10:46.912Z,20.16
2018-12-11T12:11:46.915Z,20.29
2018-12-11T12:12:46.949Z,20.19
2018-12-11T12:13:47.212Z,20.21
2018-12-11T12:14:49.107Z,20.16
2018-12-11T12:15:46.858Z,20.19
2018-12-11T12:16:46.860Z,20.28
2018-12-11T12:17:47.410Z,20.28
2018-12-11T12:18:47.881Z,20.31
2018-12-11T12:19:46.852Z,20.31
2018-12-11T12:20:46.832Z,20.40
2018-12-11T12:21:47.687Z,20.36
2018-12-11T12:22:46.802Z,20.36
2018-12-11T12:23:46.895Z,20.39
2018-12-11T12:24:47.291Z,20.31
2018-12-11T12:25:47.332Z,20.47
2018-12-11T12:26:46.817Z,20.41
2018-12-11T12:27:46.750Z,20.32
2018-12-11T12:28:46.749Z,20.37
2018-12-11T12:29:46.758Z,20.25
2018-12-11T12:30:46.755Z,20.22
2018-12-11T12:31:46.721Z,20.24
2018-12-11T12:32:46.904Z,20.34
2018-12-11T12:33:46.653Z,20.25
2018-12-11T12:34:46.922Z,20.39
2018-12-11T12:35:46.635Z,20.19
2018-12-11T12:36:46.633Z,20.32
2018-12-11T12:37:46.644Z,20.36
2018-12-11T12:38:46.674Z,20.29
2018-12-11T12:39:46.978Z,20.26
2018-12-11T12:40:46.598Z,20.34
2018-12-11T12:41:46.835Z,20.34
2018-12-11T12:42:46.565Z,20.24
2018-12-11T12:43:46.553Z,20.25
2018-12-11T12:44:48.936Z,20.25
2018-12-11T12:45:46.554Z,20.36
2018-12-11T12:46:46.537Z,20.25
2018-12-11T12:47:47.004Z,20.24
2018-12-11T12:48:46.549Z,20.29
2018-12-11T12:49:50.579Z,20.22
2018-12-11T12:50:46.514Z,20.29
2018-12-11T12:51:46.453Z,20.31
2018-12-11T12:52:46.446Z,20.19
2018-12-11T12:53:46.449Z,20.34
2018-12-11T12:54:46.462Z,20.37
2018-12-11T12:55:46.438Z,20.32
2018-12-11T12:56:45.654Z,20.29
2018-12-11T12:57:46.652Z,20.32
2018-12-11T12:58:46.420Z,20.36
2018-12-11T12:59:47.274Z,20.26
2018-12-11T13:00:46.363Z,20.21
2018-12-11T13:01:46.368Z,20.21
2018-12-11T13:02:49.923Z,20.28
2018-12-11T13:03:46.340Z,20.34
2018-12-11T13:04:46.345Z,20.26
2018-12-11T13:05:46.298Z,20.19
2018-12-11T13:06:46.314Z,20.21
2018-12-11T13:07:46.295Z,20.29
2018-12-11T13:08:46.275Z,20.26
2018-12-11T13:09:46.301Z,20.25
2018-12-11T13:10:46.254Z,20.34
2018-12-11T13:11:46.237Z,20.28
2018-12-11T13:12:46.358Z,20.39
2018-12-11T13:13:47.649Z,20.29
2018-12-11T13:14:46.268Z,20.36
2018-12-11T13:15:47.597Z,20.34
2018-12-11T13:16:46.201Z,20.36
2018-12-11T13:17:46.213Z,20.26
2018-12-11T13:18:46.312Z,20.31
2018-12-11T13:19:46.283Z,20.34
2018-12-11T13:20:46.430Z,20.25
2018-12-11T13:21:46.463Z,20.32
2018-12-11T13:22:46.193Z,20.25
2018-12-11T13:23:46.159Z,20.26
2018-12-11T13:24:46.246Z,20.24
2018-12-11T13:25:46.175Z,20.18
2018-12-11T13:26:46.358Z,20.24
2018-12-11T13:27:46.120Z,20.16
2018-12-11T13:28:46.986Z,20.19
2018-12-11T13:29:46.094Z,20.25
2018-12-11T13:30:46.436Z,20.13
2018-12-11T13:31:46.086Z,20.18
2018-12-11T13:32:46.090Z,20.16
2018-12-11T13:33:46.049Z,20.13
2018-12-11T13:34:46.113Z,20.16
2018-12-11T13:35:46.021Z,20.25
2018-12-11T13:36:45.976Z,20.13
2018-12-11T13:37:45.963Z,20.16
2018-12-11T13:38:45.961Z,20.24
2018-12-11T13:39:46.176Z,20.13
2018-12-11T13:40:45.930Z,20.21
2018-12-11T13:41:45.980Z,20.16
2018-12-11T13:42:45.923Z,20.24
2018-12-11T13:43:45.946Z,20.22
2018-12-11T13:44:46.106Z,20.16
2018-12-11T13:45:45.885Z,20.25
2018-12-11T13:46:45.881Z,20.16
2018-12-11T13:47:45.875Z,20.25
2018-12-11T13:48:45.878Z,20.22
2018-12-11T13:49:45.835Z,20.16
2018-12-11T13:50:46.116Z,20.14
2018-12-11T13:51:45.817Z,20.24
2018-12-11T13:52:46.544Z,20.24
2018-12-11T13:53:45.987Z,20.21
2018-12-11T13:54:45.783Z,20.18
2018-12-11T13:55:45.790Z,20.14
2018-12-11T13:56:45.776Z,20.13
2018-12-11T13:57:45.744Z,20.19
2018-12-11T13:58:46.003Z,20.18
2018-12-11T13:59:46.663Z,20.14
2018-12-11T14:00:45.757Z,20.16
2018-12-11T14:01:45.710Z,20.06
2018-12-11T14:02:45.689Z,20.11
2018-12-11T14:03:45.693Z,20.09
2018-12-11T14:04:45.664Z,20.07
2018-12-11T14:05:45.942Z,20.07
2018-12-11T14:06:45.672Z,20.04
2018-12-11T14:07:45.891Z,20.16
2018-12-11T14:08:45.645Z,20.06
2018-12-11T14:09:45.690Z,20.16
2018-12-11T14:10:45.657Z,20.00
2018-12-11T14:11:45.701Z,20.04
2018-12-11T14:12:45.578Z,20.07
2018-12-11T14:13:45.582Z,20.02
2018-12-11T14:14:45.601Z,20.09
2018-12-11T14:15:45.593Z,20.09
2018-12-11T14:16:45.555Z,20.11
2018-12-11T14:17:45.588Z,20.04
2018-12-11T14:18:45.602Z,20.06
2018-12-11T14:19:45.561Z,20.07
2018-12-11T14:20:45.665Z,20.06
2018-12-11T14:21:45.533Z,20.03
2018-12-11T14:22:45.488Z,20.04
2018-12-11T14:23:45.501Z,20.13
2018-12-11T14:24:45.481Z,20.03
2018-12-11T14:25:45.570Z,20.06
2018-12-11T14:26:45.487Z,20.03
2018-12-11T14:27:45.491Z,20.04
2018-12-11T14:28:45.446Z,20.03
2018-12-11T14:29:45.544Z,20.04
2018-12-11T14:30:45.423Z,20.18
2018-12-11T14:31:45.367Z,20.07
2018-12-11T14:32:45.374Z,20.03
2018-12-11T14:33:45.443Z,20.10
2018-12-11T14:34:45.374Z,20.10
2018-12-11T14:35:45.399Z,20.09
2018-12-11T14:36:45.350Z,20.03
2018-12-11T14:37:45.348Z,20.03
2018-12-11T14:38:45.336Z,20.00
2018-12-11T14:39:45.831Z,20.09
2018-12-11T14:40:45.336Z,19.99
2018-12-11T14:41:45.308Z,20.03
2018-12-11T14:42:45.516Z,20.04
2018-12-11T14:43:45.548Z,20.04
2018-12-11T14:44:45.313Z,20.07
2018-12-11T14:45:45.511Z,20.03
2018-12-11T14:46:45.268Z,20.07
2018-12-11T14:47:45.205Z,20.13
2018-12-11T14:48:45.192Z,20.13
2018-12-11T14:49:45.186Z,20.07
2018-12-11T14:50:45.231Z,20.07
2018-12-11T14:51:45.186Z,19.99
2018-12-11T14:52:45.411Z,20.00
2018-12-11T14:53:45.383Z,20.02
2018-12-11T14:54:45.162Z,20.00
2018-12-11T14:55:45.116Z,19.89
2018-12-11T14:56:45.354Z,19.91
2018-12-11T14:57:45.137Z,19.84
2018-12-11T14:58:45.080Z,19.91
2018-12-11T14:59:45.076Z,19.86
2018-12-11T15:00:45.317Z,19.89
2018-12-11T15:01:45.058Z,19.82
2018-12-11T15:02:45.054Z,19.89
2018-12-11T15:03:45.038Z,19.89
2018-12-11T15:04:46.054Z,19.84
2018-12-11T15:05:45.029Z,19.89
2018-12-11T15:06:45.020Z,19.92
2018-12-11T15:07:44.985Z,19.88
2018-12-11T15:08:44.981Z,19.94
2018-12-11T15:09:44.985Z,19.86
2018-12-11T15:10:44.976Z,19.86
2018-12-11T15:11:44.967Z,19.91
2018-12-11T15:12:44.958Z,19.96
2018-12-11T15:13:44.928Z,19.88
2018-12-11T15:14:44.907Z,19.89
2018-12-11T15:15:44.979Z,19.91
2018-12-11T15:16:44.900Z,19.88
2018-12-11T15:17:46.832Z,19.88
2018-12-11T15:18:44.905Z,19.88
2018-12-11T15:19:44.891Z,19.74
2018-12-11T15:20:44.879Z,19.85
2018-12-11T15:21:44.869Z,19.81
2018-12-11T15:22:44.878Z,19.77
2018-12-11T15:23:45.110Z,19.81
2018-12-11T15:24:44.854Z,19.77
2018-12-11T15:25:44.832Z,19.77
2018-12-11T15:26:44.821Z,19.77
2018-12-11T15:27:45.056Z,19.81
2018-12-11T15:28:45.003Z,19.73
2018-12-11T15:29:44.755Z,19.76
2018-12-11T15:30:44.732Z,19.74
2018-12-11T15:31:44.736Z,19.73
2018-12-11T15:32:44.976Z,19.73
2018-12-11T15:33:44.703Z,19.81
2018-12-11T15:34:44.750Z,19.76
2018-12-11T15:35:44.688Z,19.79
2018-12-11T15:36:44.722Z,19.74
2018-12-11T15:37:44.667Z,19.74
2018-12-11T15:38:45.937Z,19.74
2018-12-11T15:39:44.658Z,19.74
2018-12-11T15:40:44.658Z,19.74
2018-12-11T15:41:44.942Z,19.73
2018-12-11T15:42:44.609Z,19.74
2018-12-11T15:43:44.651Z,19.77
2018-12-11T15:44:44.591Z,19.73
2018-12-11T15:45:45.107Z,19.69
2018-12-11T15:46:44.584Z,19.71
2018-12-11T15:47:44.549Z,19.67
2018-12-11T15:48:44.536Z,19.59
2018-12-11T15:49:45.528Z,19.62
2018-12-11T15:50:44.522Z,19.62
2018-12-11T15:51:44.534Z,19.66
2018-12-11T15:52:44.504Z,19.55
2018-12-11T15:53:44.489Z,19.63
2018-12-11T15:54:44.509Z,19.70
2018-12-11T15:55:44.570Z,19.73
2018-12-11T15:56:44.597Z,19.59
2018-12-11T15:57:44.446Z,19.63
2018-12-11T15:58:44.706Z,19.62
2018-12-11T15:59:44.475Z,19.66
2018-12-11T16:00:44.405Z,19.58
2018-12-11T16:01:44.424Z,19.59
2018-12-11T16:02:44.397Z,19.59
2018-12-11T16:03:44.381Z,19.58
2018-12-11T16:04:44.436Z,19.56
2018-12-11T16:05:44.356Z,19.62
2018-12-11T16:06:44.616Z,19.51
2018-12-11T16:07:44.331Z,19.62
2018-12-11T16:08:44.321Z,19.59
2018-12-11T16:09:44.326Z,19.56
2018-12-11T16:10:44.367Z,19.62
2018-12-11T16:11:44.372Z,19.64
2018-12-11T16:12:44.537Z,19.62
2018-12-11T16:13:44.272Z,19.59
2018-12-11T16:14:44.258Z,19.62
2018-12-11T16:15:44.252Z,19.62
2018-12-11T16:16:45.516Z,19.62
2018-12-11T16:17:44.513Z,19.62
2018-12-11T16:18:44.246Z,19.59
2018-12-11T16:19:44.242Z,19.59
2018-12-11T16:20:44.537Z,19.48
2018-12-11T16:21:44.298Z,19.64
2018-12-11T16:22:44.206Z,19.48
2018-12-11T16:23:44.475Z,19.64
2018-12-11T16:24:44.242Z,19.58
2018-12-11T16:25:44.177Z,19.55
2018-12-11T16:26:44.454Z,19.63
2018-12-11T16:27:44.157Z,19.55
2018-12-11T16:28:45.378Z,19.62
2018-12-11T16:29:45.176Z,19.51
2018-12-11T16:30:44.090Z,19.64
2018-12-11T16:31:44.073Z,19.56
2018-12-11T16:32:45.003Z,19.49
2018-12-11T16:33:44.300Z,19.49
2018-12-11T16:34:44.067Z,19.51
2018-12-11T16:35:44.025Z,19.62
2018-12-11T16:36:44.024Z,19.55
2018-12-11T16:37:44.007Z,19.49
2018-12-11T16:38:43.999Z,19.49
2018-12-11T16:39:44.081Z,19.51
2018-12-11T16:40:43.992Z,19.47
2018-12-11T16:41:44.007Z,19.49
2018-12-11T16:42:44.301Z,19.52
2018-12-11T16:43:44.196Z,19.51
2018-12-11T16:44:43.936Z,19.41
2018-12-11T16:45:43.971Z,19.37
2018-12-11T16:46:43.909Z,19.39
2018-12-11T16:47:43.914Z,19.39
2018-12-11T16:48:43.894Z,19.40
2018-12-11T16:49:43.873Z,19.40
2018-12-11T16:50:44.119Z,19.41
2018-12-11T16:51:43.852Z,19.34
2018-12-11T16:52:44.138Z,19.36
2018-12-11T16:53:43.838Z,19.37
2018-12-11T16:54:43.844Z,19.33
2018-12-11T16:55:43.814Z,19.36
2018-12-11T16:56:43.821Z,19.34
2018-12-11T16:57:44.037Z,19.39
2018-12-11T16:58:43.787Z,19.36
2018-12-11T16:59:43.771Z,19.34
2018-12-11T17:00:43.788Z,19.34
2018-12-11T17:01:43.744Z,19.34
2018-12-11T17:02:43.763Z,19.37
2018-12-11T17:03:43.977Z,19.36
2018-12-11T17:04:43.729Z,19.34
2018-12-11T17:05:43.700Z,19.33
2018-12-11T17:06:43.710Z,19.37
2018-12-11T17:07:43.751Z,19.36
2018-12-11T17:08:43.682Z,19.36
2018-12-11T17:09:43.662Z,19.36
2018-12-11T17:10:43.647Z,19.30
2018-12-11T17:11:43.662Z,19.37
2018-12-11T17:12:43.718Z,19.37
2018-12-11T17:13:43.620Z,19.31
2018-12-11T17:14:43.659Z,19.36
2018-12-11T17:15:43.598Z,19.30
2018-12-11T17:16:43.605Z,19.36
2018-12-11T17:17:43.707Z,19.44
2018-12-11T17:18:43.594Z,19.30
2018-12-11T17:19:43.843Z,19.29
2018-12-11T17:20:43.594Z,19.39
2018-12-11T17:21:46.918Z,19.29
2018-12-11T17:22:43.689Z,19.30
2018-12-11T17:23:43.554Z,19.29
2018-12-11T17:24:43.535Z,19.21
2018-12-11T17:25:43.528Z,19.26
2018-12-11T17:26:43.833Z,19.22
2018-12-11T17:27:43.624Z,19.24
2018-12-11T17:28:43.493Z,19.22
2018-12-11T17:29:43.444Z,19.22
2018-12-11T17:30:43.433Z,19.29
2018-12-11T17:31:46.489Z,19.24
2018-12-11T17:32:43.440Z,19.21
2018-12-11T17:33:43.469Z,19.30
2018-12-11T17:34:43.426Z,19.18
2018-12-11T17:35:43.411Z,19.24
2018-12-11T17:36:43.406Z,19.21
2018-12-11T17:37:43.636Z,19.22
2018-12-11T17:38:43.347Z,19.22
2018-12-11T17:39:43.405Z,19.21
2018-12-11T17:40:43.329Z,19.16
2018-12-11T17:41:43.357Z,19.19
2018-12-11T17:42:43.332Z,19.18
2018-12-11T17:43:43.345Z,19.11
2018-12-11T17:44:43.306Z,19.19
2018-12-11T17:45:43.264Z,19.15
2018-12-11T17:46:43.328Z,19.02
2018-12-11T17:47:43.356Z,19.18
2018-12-11T17:48:43.238Z,19.04
2018-12-11T17:49:43.236Z,19.14
2018-12-11T17:50:43.266Z,19.18
2018-12-11T17:51:43.211Z,19.16
2018-12-11T17:52:43.261Z,19.16
2018-12-11T17:53:43.482Z,19.16
2018-12-11T17:54:43.195Z,19.15
2018-12-11T17:55:43.408Z,19.19
2018-12-11T17:56:43.404Z,19.14
2018-12-11T17:57:43.218Z,19.15
2018-12-11T17:58:43.140Z,19.15
2018-12-11T17:59:43.120Z,19.18
2018-12-11T18:00:43.232Z,19.24
2018-12-11T18:01:43.095Z,19.22
2018-12-11T18:02:43.114Z,19.21
2018-12-11T18:03:43.073Z,19.19
2018-12-11T18:04:43.120Z,19.19
2018-12-11T18:05:43.052Z,19.24
2018-12-11T18:06:43.042Z,19.19
2018-12-11T18:07:43.059Z,19.24
2018-12-11T18:08:43.035Z,19.16
2018-12-11T18:09:43.019Z,19.09
2018-12-11T18:10:43.005Z,19.24
2018-12-11T18:11:42.995Z,19.18
2018-12-11T18:12:43.193Z,19.07
2018-12-11T18:13:42.966Z,19.21
2018-12-11T18:14:42.973Z,19.16
2018-12-11T18:15:42.942Z,19.16
2018-12-11T18:16:42.932Z,19.16
2018-12-11T18:17:43.425Z,19.16
2018-12-11T18:18:42.961Z,19.12
2018-12-11T18:19:42.942Z,19.19
2018-12-11T18:20:43.216Z,19.12
2018-12-11T18:21:42.916Z,19.15
2018-12-11T18:22:43.206Z,19.09
2018-12-11T18:23:42.891Z,19.12
2018-12-11T18:24:42.887Z,19.11
2018-12-11T18:25:43.205Z,19.04
2018-12-11T18:26:42.862Z,19.02
2018-12-11T18:27:42.849Z,19.07
2018-12-11T18:28:42.816Z,19.08
2018-12-11T18:29:42.796Z,19.07
2018-12-11T18:30:42.789Z,19.04
2018-12-11T18:31:42.779Z,19.09
2018-12-11T18:32:42.781Z,18.96
2018-12-11T18:33:42.779Z,19.09
2018-12-11T18:34:42.739Z,19.08
2018-12-11T18:35:42.729Z,19.09
2018-12-11T18:36:42.722Z,19.07
2018-12-11T18:37:43.064Z,19.00
2018-12-11T18:38:42.695Z,19.11
2018-12-11T18:39:42.944Z,19.09
2018-12-11T18:40:42.712Z,19.07
2018-12-11T18:41:42.662Z,19.07
2018-12-11T18:42:43.007Z,19.02
2018-12-11T18:43:42.696Z,19.08
2018-12-11T18:44:42.629Z,19.02
2018-12-11T18:45:42.619Z,19.07
2018-12-11T18:46:42.668Z,18.99
2018-12-11T18:47:42.640Z,19.00
2018-12-11T18:48:42.743Z,19.04
2018-12-11T18:49:42.588Z,18.98
2018-12-11T18:50:42.565Z,19.04
2018-12-11T18:51:42.607Z,19.07
2018-12-11T18:52:42.544Z,19.07
2018-12-11T18:53:42.840Z,19.00
2018-12-11T18:54:42.533Z,19.04
2018-12-11T18:55:42.509Z,19.04
2018-12-11T18:56:42.496Z,19.02
2018-12-11T18:57:42.489Z,19.04
2018-12-11T18:58:42.546Z,19.04
2018-12-11T18:59:42.465Z,19.08
2018-12-11T19:00:42.754Z,19.04
2018-12-11T19:01:42.450Z,19.02
2018-12-11T19:02:42.440Z,19.07
2018-12-11T19:03:49.120Z,19.04
2018-12-11T19:04:42.426Z,19.07